createdAt,value
2022-11-25T00:01:31.351Z,8.10
2022-11-25T00:03:59.196Z,8.10
2022-11-25T00:06:31.857Z,8.10
2022-11-25T00:09:01.247Z,8.10
2022-11-25T00:11:28.669Z,8.10
2022-11-25T00:13:56.982Z,8.10
2022-11-25T00:16:26.607Z,8.00
2022-11-25T00:18:55.647Z,8.10
2022-11-25T00:21:25.039Z,8.10
2022-11-25T00:24:00.438Z,8.10
2022-11-25T00:26:29.787Z,8.10
2022-11-25T00:28:59.409Z,8.10
2022-11-25T00:31:32.624Z,8.10
2022-11-25T00:33:59.962Z,8.10
2022-11-25T00:36:30.362Z,8.10
2022-11-25T00:39:10.332Z,8.20
2022-11-25T00:41:56.184Z,8.20
2022-11-25T00:44:41.831Z,8.20
2022-11-25T00:47:10.148Z,8.20
2022-11-25T00:49:39.527Z,8.20
2022-11-25T00:52:07.261Z,8.20
2022-11-25T00:54:34.678Z,8.20
2022-11-25T00:57:01.945Z,8.20
2022-11-25T00:59:29.058Z,8.30
2022-11-25T01:01:57.045Z,8.30
2022-11-25T01:04:24.537Z,8.20
2022-11-25T01:06:51.776Z,8.20
2022-11-25T01:09:18.982Z,8.20
2022-11-25T01:11:46.255Z,8.10
2022-11-25T01:14:13.618Z,8.10
2022-11-25T01:16:40.973Z,8.10
2022-11-25T01:19:08.224Z,8.10
2022-11-25T01:21:35.748Z,8.00
2022-11-25T01:24:05.278Z,7.90
2022-11-25T01:26:33.978Z,7.90
2022-11-25T01:29:04.152Z,7.80
2022-11-25T01:31:34.625Z,7.80
2022-11-25T01:34:13.047Z,7.70
2022-11-25T01:36:40.801Z,7.70
2022-11-25T01:39:08.274Z,7.60
2022-11-25T01:41:36.066Z,7.70
2022-11-25T01:44:06.374Z,7.60
2022-11-25T01:46:43.157Z,7.60
2022-11-25T01:49:17.039Z,7.60
2022-11-25T01:52:03.063Z,7.70
2022-11-25T01:54:36.865Z,7.80
2022-11-25T01:57:18.938Z,7.80
2022-11-25T01:59:50.697Z,7.90
2022-11-25T02:02:18.427Z,7.90
2022-11-25T02:04:46.952Z,7.90
2022-11-25T02:07:20.901Z,7.90
2022-11-25T02:09:49.187Z,7.90
2022-11-25T02:12:18.811Z,7.90
2022-11-25T02:14:48.143Z,7.90
2022-11-25T02:17:15.421Z,7.90
2022-11-25T02:19:57.197Z,7.80
2022-11-25T02:22:33.047Z,7.90
2022-11-25T02:25:13.713Z,7.90
2022-11-25T02:27:43.339Z,8.00
2022-11-25T02:30:10.912Z,8.00
2022-11-25T02:32:46.413Z,8.00
2022-11-25T02:35:28.164Z,8.00
2022-11-25T02:38:02.749Z,8.00
2022-11-25T02:40:30.471Z,8.00
2022-11-25T02:43:00.639Z,8.10
2022-11-25T02:45:41.922Z,8.00
2022-11-25T02:48:09.107Z,8.00
2022-11-25T02:50:36.549Z,8.00
2022-11-25T02:53:03.770Z,8.00
2022-11-25T02:55:31.273Z,8.00
2022-11-25T02:57:58.539Z,8.10
2022-11-25T03:00:25.883Z,8.10
2022-11-25T03:02:54.536Z,8.10
2022-11-25T03:05:23.137Z,8.10
2022-11-25T03:07:50.980Z,8.10
2022-11-25T03:10:18.382Z,8.20
2022-11-25T03:12:45.922Z,8.20
2022-11-25T03:15:13.157Z,8.20
2022-11-25T03:17:40.755Z,8.20
2022-11-25T03:20:08.650Z,8.30
2022-11-25T03:22:36.350Z,8.30
2022-11-25T03:25:03.799Z,8.30
2022-11-25T03:27:30.999Z,8.30
2022-11-25T03:29:58.262Z,8.30
2022-11-25T03:32:25.771Z,8.40
2022-11-25T03:34:53.000Z,8.40
2022-11-25T03:37:20.181Z,8.40
2022-11-25T03:39:47.320Z,8.40
2022-11-25T03:42:14.385Z,8.40
2022-11-25T03:44:41.653Z,8.40
2022-11-25T03:47:08.809Z,8.40
2022-11-25T03:49:35.982Z,8.50
2022-11-25T03:52:03.336Z,8.40
2022-11-25T03:54:30.591Z,8.40
2022-11-25T03:56:57.719Z,8.50
2022-11-25T03:59:24.833Z,8.50
2022-11-25T04:01:52.147Z,8.50
2022-11-25T04:04:19.284Z,8.50
2022-11-25T04:06:46.360Z,8.50
2022-11-25T04:09:13.573Z,8.50
2022-11-25T04:11:59.830Z,8.50
2022-11-25T04:14:27.383Z,8.50
2022-11-25T04:16:54.765Z,8.50
2022-11-25T04:19:22.056Z,8.60
2022-11-25T04:21:52.262Z,8.60
2022-11-25T04:24:19.917Z,8.50
2022-11-25T04:26:47.238Z,8.50
2022-11-25T04:29:14.446Z,8.50
2022-11-25T04:31:41.569Z,8.50
2022-11-25T04:34:08.853Z,8.50
2022-11-25T04:36:36.208Z,8.50
2022-11-25T04:39:03.957Z,8.50
2022-11-25T04:41:31.227Z,8.60
2022-11-25T04:44:01.491Z,8.50
2022-11-25T04:46:35.902Z,8.50
2022-11-25T04:49:03.228Z,8.50
2022-11-25T04:51:30.417Z,8.50
2022-11-25T04:53:57.875Z,8.50
2022-11-25T04:56:25.458Z,8.50
2022-11-25T04:59:11.325Z,8.50
2022-11-25T05:01:38.510Z,8.50
2022-11-25T05:04:05.663Z,8.50
2022-11-25T05:06:33.032Z,8.50
2022-11-25T05:09:00.155Z,8.50
2022-11-25T05:11:27.323Z,8.50
2022-11-25T05:13:54.445Z,8.50
2022-11-25T05:16:21.582Z,8.50
2022-11-25T05:18:48.877Z,8.50
2022-11-25T05:21:15.986Z,8.50
2022-11-25T05:23:43.149Z,8.50
2022-11-25T05:26:11.311Z,8.50
2022-11-25T05:28:38.472Z,8.50
2022-11-25T05:31:06.253Z,8.50
2022-11-25T05:33:33.429Z,8.50
2022-11-25T05:36:02.359Z,8.50
2022-11-25T05:38:29.658Z,8.50
2022-11-25T05:41:05.924Z,8.50
2022-11-25T05:43:33.762Z,8.50
2022-11-25T05:46:04.952Z,8.40
2022-11-25T05:48:32.267Z,8.50
2022-11-25T05:51:01.204Z,8.40
2022-11-25T05:53:28.649Z,8.40
2022-11-25T05:55:59.258Z,8.30
2022-11-25T05:58:26.727Z,8.20
2022-11-25T06:00:53.880Z,8.20
2022-11-25T06:03:25.367Z,8.10
2022-11-25T06:05:52.606Z,8.00
2022-11-25T06:08:19.827Z,7.90
2022-11-25T06:10:47.086Z,7.80
2022-11-25T06:13:14.317Z,7.70
2022-11-25T06:15:43.511Z,7.60
2022-11-25T06:18:11.700Z,7.50
2022-11-25T06:20:39.521Z,7.50
2022-11-25T06:23:07.650Z,7.40
2022-11-25T06:25:34.931Z,7.40
2022-11-25T06:28:12.933Z,7.40
2022-11-25T06:30:40.589Z,7.40
2022-11-25T06:33:07.947Z,7.40
2022-11-25T06:35:36.621Z,7.40
2022-11-25T06:38:03.968Z,7.40
2022-11-25T06:40:31.194Z,7.40
2022-11-25T06:42:58.299Z,7.30
2022-11-25T06:45:25.754Z,7.30
2022-11-25T06:47:54.027Z,7.20
2022-11-25T06:50:21.266Z,7.20
2022-11-25T06:52:48.627Z,7.10
2022-11-25T06:55:15.948Z,7.10
2022-11-25T06:57:43.585Z,7.10
2022-11-25T07:00:11.222Z,7.10
2022-11-25T07:02:44.061Z,7.00
2022-11-25T07:05:14.101Z,7.00
2022-11-25T07:07:41.380Z,7.00
2022-11-25T07:10:09.385Z,7.00
2022-11-25T07:12:36.452Z,7.00
2022-11-25T07:15:04.014Z,7.00
2022-11-25T07:17:31.156Z,7.00
2022-11-25T07:20:00.374Z,7.10
2022-11-25T07:22:27.544Z,7.10
2022-11-25T07:24:54.922Z,7.20
2022-11-25T07:27:22.114Z,7.20
2022-11-25T07:30:10.287Z,7.30
2022-11-25T07:32:36.884Z,7.30
2022-11-25T07:35:04.477Z,7.40
2022-11-25T07:37:31.590Z,7.40
2022-11-25T07:39:58.711Z,7.50
2022-11-25T07:42:27.141Z,7.50
2022-11-25T07:44:54.736Z,7.60
2022-11-25T07:47:21.995Z,7.60
2022-11-25T07:49:49.316Z,7.70
2022-11-25T07:52:16.454Z,7.70
2022-11-25T07:54:43.820Z,7.70
2022-11-25T07:57:11.038Z,7.80
2022-11-25T07:59:41.358Z,7.90
2022-11-25T08:02:10.380Z,7.90
2022-11-25T08:04:37.854Z,7.90
2022-11-25T08:07:05.054Z,8.00
2022-11-25T08:09:32.309Z,8.10
2022-11-25T08:12:00.734Z,8.10
2022-11-25T08:14:27.889Z,8.10
2022-11-25T08:16:55.906Z,8.20
2022-11-25T08:19:27.079Z,8.20
2022-11-25T08:21:58.468Z,8.30
2022-11-25T08:24:25.608Z,8.30
2022-11-25T08:26:54.531Z,8.40
2022-11-25T08:29:21.874Z,8.40
2022-11-25T08:31:49.058Z,8.50
2022-11-25T08:34:22.805Z,8.60
2022-11-25T08:36:50.790Z,8.60
2022-11-25T08:42:06.940Z,8.70
2022-11-25T08:44:34.604Z,8.80
2022-11-25T08:47:01.875Z,8.80
2022-11-25T08:49:32.725Z,8.90
2022-11-25T08:52:02.102Z,8.90
2022-11-25T08:54:29.190Z,9.00
2022-11-25T08:56:56.383Z,9.00
2022-11-25T08:59:25.386Z,9.00
2022-11-25T09:01:53.072Z,9.10
2022-11-25T09:04:20.412Z,9.20
2022-11-25T09:06:47.536Z,9.20
2022-11-25T09:09:14.857Z,9.30
2022-11-25T09:11:42.711Z,9.30
2022-11-25T09:14:09.931Z,9.40
2022-11-25T09:16:37.292Z,9.40
2022-11-25T09:19:04.632Z,9.40
2022-11-25T09:21:31.750Z,9.50
2022-11-25T09:23:59.217Z,9.40
2022-11-25T09:26:33.105Z,9.40
2022-11-25T09:29:00.265Z,9.40
2022-11-25T09:31:27.542Z,9.50
2022-11-25T09:33:56.960Z,9.50
2022-11-25T09:36:24.959Z,9.70
2022-11-25T09:38:52.416Z,9.90
2022-11-25T09:41:50.501Z,10.20
2022-11-25T09:44:53.669Z,10.50
2022-11-25T09:47:33.471Z,10.80
2022-11-25T09:50:35.745Z,10.80
2022-11-25T09:53:29.415Z,10.90
2022-11-25T09:56:06.953Z,11.20
2022-11-25T09:58:44.777Z,11.30
2022-11-25T10:01:19.770Z,11.10
2022-11-25T10:04:05.679Z,11.10
2022-11-25T10:06:41.039Z,11.10
2022-11-25T10:09:17.874Z,11.10
2022-11-25T10:11:54.897Z,11.10
2022-11-25T10:14:47.901Z,11.10
2022-11-25T10:17:20.893Z,11.10
2022-11-25T10:20:00.264Z,11.10
2022-11-25T10:22:37.751Z,11.20
2022-11-25T10:25:17.007Z,11.20
2022-11-25T10:27:53.468Z,11.30
2022-11-25T10:30:42.223Z,11.30
2022-11-25T10:33:49.479Z,11.40
2022-11-25T10:36:37.220Z,11.40
2022-11-25T10:39:10.600Z,11.40
2022-11-25T10:41:46.633Z,11.50
2022-11-25T10:44:32.490Z,11.40
2022-11-25T10:47:15.456Z,11.50
2022-11-25T10:49:57.201Z,11.50
2022-11-25T10:52:28.910Z,11.50
2022-11-25T10:55:15.299Z,11.50
2022-11-25T10:57:43.296Z,11.50
2022-11-25T11:00:33.523Z,11.50
2022-11-25T11:03:24.194Z,11.50
2022-11-25T11:05:54.004Z,11.50
2022-11-25T11:08:39.018Z,11.60
2022-11-25T11:11:09.208Z,11.60
2022-11-25T11:13:36.293Z,11.60
2022-11-25T11:16:03.895Z,11.60
2022-11-25T11:18:37.129Z,11.70
2022-11-25T11:21:07.625Z,11.70
2022-11-25T11:23:53.212Z,11.70
2022-11-25T11:26:27.277Z,11.70
2022-11-25T11:29:00.330Z,11.70
2022-11-25T11:31:55.571Z,11.80
2022-11-25T11:34:49.225Z,11.80
2022-11-25T11:37:40.597Z,11.80
2022-11-25T11:40:29.490Z,11.80
2022-11-25T11:43:20.743Z,11.80
2022-11-25T11:45:53.840Z,12.00
2022-11-25T11:48:29.333Z,12.40
2022-11-25T11:51:06.757Z,12.50
2022-11-25T11:54:07.137Z,12.40
2022-11-25T11:56:40.030Z,12.40
2022-11-25T11:59:25.770Z,12.30
2022-11-25T12:02:14.658Z,12.30
2022-11-25T12:04:47.516Z,12.30
2022-11-25T12:07:32.522Z,12.30
2022-11-25T12:10:06.515Z,12.20
2022-11-25T12:13:00.630Z,12.20
2022-11-25T12:15:46.139Z,12.20
2022-11-25T12:18:21.039Z,12.20
2022-11-25T12:20:55.132Z,12.20
2022-11-25T12:23:52.027Z,12.10
2022-11-25T12:26:29.459Z,12.10
2022-11-25T12:29:05.720Z,12.10
2022-11-25T12:31:40.473Z,12.10
2022-11-25T12:34:41.142Z,12.10
2022-11-25T12:37:16.227Z,12.00
2022-11-25T12:39:57.176Z,12.00
2022-11-25T12:42:26.307Z,12.00
2022-11-25T12:45:00.960Z,12.00
2022-11-25T12:47:28.624Z,12.00
2022-11-25T12:49:56.423Z,12.00
2022-11-25T12:52:26.844Z,12.00
2022-11-25T12:55:03.065Z,12.00
2022-11-25T12:57:41.947Z,12.00
2022-11-25T13:00:49.073Z,11.90
2022-11-25T13:03:53.765Z,12.00
2022-11-25T13:07:11.199Z,11.90
2022-11-25T13:09:54.246Z,11.90
2022-11-25T13:12:21.966Z,11.90
2022-11-25T13:15:11.987Z,11.90
2022-11-25T13:17:45.312Z,11.90
2022-11-25T13:20:27.767Z,11.90
2022-11-25T13:23:18.362Z,11.90
2022-11-25T13:25:50.030Z,11.80
2022-11-25T13:28:37.105Z,11.80
2022-11-25T13:31:13.775Z,11.80
2022-11-25T13:33:44.201Z,11.70
2022-11-25T13:36:23.051Z,11.70
2022-11-25T13:38:53.287Z,11.70
2022-11-25T13:41:45.571Z,11.70
2022-11-25T13:44:22.699Z,11.70
2022-11-25T13:46:52.904Z,11.60
2022-11-25T13:49:21.919Z,11.60
2022-11-25T13:51:51.726Z,11.60
2022-11-25T13:54:24.360Z,11.60
2022-11-25T13:57:15.339Z,11.60
2022-11-25T13:59:43.063Z,11.50
2022-11-25T14:02:28.675Z,11.50
2022-11-25T14:05:28.565Z,11.40
2022-11-25T14:08:49.965Z,11.30
2022-11-25T14:11:49.434Z,11.30
2022-11-25T14:14:50.973Z,11.20
2022-11-25T14:17:27.536Z,11.10
2022-11-25T14:20:13.893Z,11.10
2022-11-25T14:23:22.215Z,11.00
2022-11-25T14:26:01.796Z,10.90
2022-11-25T14:28:54.553Z,10.80
2022-11-25T14:31:31.743Z,10.60
2022-11-25T14:34:05.357Z,10.50
2022-11-25T14:36:41.843Z,10.30
2022-11-25T14:39:41.994Z,10.20
2022-11-25T14:42:17.582Z,10.20
2022-11-25T14:44:46.988Z,10.10
2022-11-25T14:47:14.164Z,10.00
2022-11-25T14:50:05.378Z,9.90
2022-11-25T14:52:38.233Z,9.80
2022-11-25T14:55:06.814Z,9.60
2022-11-25T14:57:37.110Z,9.60
2022-11-25T15:00:11.934Z,9.50
2022-11-25T15:03:03.784Z,9.40
2022-11-25T15:05:36.745Z,9.30
2022-11-25T15:08:38.309Z,9.30
2022-11-25T15:11:21.645Z,9.30
2022-11-25T15:13:58.233Z,9.30
2022-11-25T15:16:35.139Z,9.20
2022-11-25T15:19:05.971Z,9.20
2022-11-25T15:21:53.901Z,9.10
2022-11-25T15:24:30.274Z,9.10
2022-11-25T15:27:02.915Z,9.10
2022-11-25T15:29:31.373Z,9.10
2022-11-25T15:32:00.197Z,9.00
2022-11-25T15:34:29.210Z,8.90
2022-11-25T15:37:00.530Z,8.90
2022-11-25T15:39:28.126Z,8.90
2022-11-25T15:42:02.704Z,8.80
2022-11-25T15:44:33.545Z,8.80
2022-11-25T15:47:15.774Z,8.70
2022-11-25T15:49:50.010Z,8.70
2022-11-25T15:52:22.291Z,8.60
2022-11-25T15:54:52.990Z,8.60
2022-11-25T15:57:27.262Z,8.60
2022-11-25T16:00:19.996Z,8.60
2022-11-25T16:02:47.265Z,8.50
2022-11-25T16:05:14.509Z,8.40
2022-11-25T16:08:20.350Z,8.40
2022-11-25T16:10:53.603Z,8.40
2022-11-25T16:13:23.972Z,8.30
2022-11-25T16:16:17.881Z,8.30
2022-11-25T16:18:56.883Z,8.30
2022-11-25T16:21:27.200Z,8.30
2022-11-25T16:24:00.132Z,8.20
2022-11-25T16:26:32.099Z,8.20
2022-11-25T16:29:01.864Z,8.20
2022-11-25T16:31:29.111Z,8.20
2022-11-25T16:34:15.402Z,8.10
2022-11-25T16:36:45.626Z,8.10
2022-11-25T16:39:13.601Z,8.10
2022-11-25T16:41:42.289Z,8.10
2022-11-25T16:44:28.614Z,8.10
2022-11-25T16:46:57.553Z,8.00
2022-11-25T16:49:26.444Z,8.00
2022-11-25T16:51:54.382Z,7.90
2022-11-25T16:54:23.127Z,7.90
2022-11-25T16:56:53.182Z,7.90
2022-11-25T16:59:33.618Z,7.90
2022-11-25T17:02:01.730Z,7.90
2022-11-25T17:04:29.165Z,7.90
2022-11-25T17:07:30.399Z,7.80
2022-11-25T17:09:45.214Z,7.80
2022-11-25T17:12:25.266Z,7.80
2022-11-25T17:14:53.141Z,7.80
2022-11-25T17:17:26.345Z,7.80
2022-11-25T17:19:54.296Z,7.80
2022-11-25T17:22:26.264Z,7.80
2022-11-25T17:24:55.130Z,7.80
2022-11-25T17:27:34.223Z,7.80
2022-11-25T17:30:04.462Z,7.80
2022-11-25T17:32:35.504Z,7.80
2022-11-25T17:35:02.955Z,7.80
2022-11-25T17:37:31.837Z,7.80
2022-11-25T17:39:58.961Z,7.80
2022-11-25T17:42:32.411Z,7.90
2022-11-25T17:45:00.508Z,7.90
2022-11-25T17:47:29.919Z,7.90
2022-11-25T17:49:57.933Z,8.00
2022-11-25T17:52:25.195Z,8.00
2022-11-25T17:54:53.051Z,8.00
2022-11-25T17:57:21.970Z,8.10
2022-11-25T17:59:49.567Z,8.10
2022-11-25T18:02:22.055Z,8.10
2022-11-25T18:04:49.678Z,8.10
2022-11-25T18:07:17.313Z,8.20
2022-11-25T18:09:45.446Z,8.20
2022-11-25T18:12:20.520Z,8.20
2022-11-25T18:14:47.878Z,8.20
2022-11-25T18:17:18.927Z,8.20
2022-11-25T18:19:52.939Z,8.30
2022-11-25T18:22:24.310Z,8.30
2022-11-25T18:24:52.124Z,8.30
2022-11-25T18:27:27.299Z,8.30
2022-11-25T18:29:55.572Z,8.30
2022-11-25T18:32:23.815Z,8.40
2022-11-25T18:34:51.634Z,8.30
2022-11-25T18:37:18.813Z,8.40
2022-11-25T18:39:46.771Z,8.30
2022-11-25T18:42:26.631Z,8.40
2022-11-25T18:44:56.210Z,8.40
2022-11-25T18:47:23.962Z,8.30
2022-11-25T18:49:55.792Z,8.40
2022-11-25T18:52:24.946Z,8.30
2022-11-25T18:54:53.610Z,8.30
2022-11-25T18:57:22.014Z,8.30
2022-11-25T19:00:17.048Z,8.30
2022-11-25T19:02:39.054Z,8.40
2022-11-25T19:05:24.460Z,8.40
2022-11-25T19:07:56.170Z,8.40
2022-11-25T19:10:27.037Z,8.40
2022-11-25T19:13:08.583Z,8.30
2022-11-25T19:15:37.575Z,8.40
2022-11-25T19:18:13.012Z,8.40
2022-11-25T19:20:41.226Z,8.40
2022-11-25T19:23:17.520Z,8.40
2022-11-25T19:25:45.473Z,8.40
2022-11-25T19:28:14.454Z,8.40
2022-11-25T19:30:42.297Z,8.40
2022-11-25T19:33:27.873Z,8.40
2022-11-25T19:35:55.128Z,8.40
2022-11-25T19:38:26.135Z,8.40
2022-11-25T19:40:54.894Z,8.40
2022-11-25T19:43:23.247Z,8.40
2022-11-25T19:45:50.768Z,8.40
2022-11-25T19:48:20.033Z,8.40
2022-11-25T19:50:49.908Z,8.40
2022-11-25T19:53:21.724Z,8.40
2022-11-25T19:55:49.037Z,8.40
2022-11-25T19:58:16.397Z,8.40
2022-11-25T20:00:46.172Z,8.40
2022-11-25T20:03:26.715Z,8.40
2022-11-25T20:05:55.108Z,8.40
2022-11-25T20:08:27.960Z,8.40
2022-11-25T20:10:56.477Z,8.40
2022-11-25T20:13:26.066Z,8.40
2022-11-25T20:15:55.348Z,8.40
2022-11-25T20:18:24.897Z,8.40
2022-11-25T20:21:01.875Z,8.40
2022-11-25T20:23:43.360Z,8.50
2022-11-25T20:26:34.401Z,8.40
2022-11-25T20:29:02.145Z,8.50
2022-11-25T20:31:30.655Z,8.50
2022-11-25T20:33:58.124Z,8.50
2022-11-25T20:36:33.425Z,8.50
2022-11-25T20:39:03.038Z,8.50
2022-11-25T20:41:31.044Z,8.50
2022-11-25T20:43:59.506Z,8.50
2022-11-25T20:46:30.059Z,8.50
2022-11-25T20:49:00.443Z,8.50
2022-11-25T20:51:28.270Z,8.50
2022-11-25T20:53:57.510Z,8.60
2022-11-25T20:56:26.954Z,8.50
2022-11-25T20:58:54.726Z,8.50
2022-11-25T21:01:22.083Z,8.50
2022-11-25T21:03:50.407Z,8.50
2022-11-25T21:06:21.243Z,8.50
2022-11-25T21:08:51.281Z,8.50
2022-11-25T21:11:20.216Z,8.40
2022-11-25T21:13:47.433Z,8.40
2022-11-25T21:16:15.042Z,8.40
2022-11-25T21:18:43.298Z,8.20
2022-11-25T21:21:38.325Z,8.20
2022-11-25T21:24:17.228Z,8.10
2022-11-25T21:26:44.969Z,8.00
2022-11-25T21:29:17.462Z,8.00
2022-11-25T21:31:45.086Z,7.90
2022-11-25T21:34:14.229Z,7.90
2022-11-25T21:36:43.013Z,7.80
2022-11-25T21:39:20.101Z,7.70
2022-11-25T21:41:48.313Z,7.70
2022-11-25T21:44:35.192Z,7.70
2022-11-25T21:47:03.064Z,7.60
2022-11-25T21:49:30.206Z,7.60
2022-11-25T21:51:57.351Z,7.50
2022-11-25T21:54:24.535Z,7.50
2022-11-25T21:56:52.446Z,7.40
2022-11-25T21:59:20.709Z,7.40
2022-11-25T22:01:48.049Z,7.30
2022-11-25T22:04:17.791Z,7.30
2022-11-25T22:06:45.507Z,7.30
2022-11-25T22:09:13.737Z,7.20
2022-11-25T22:11:46.855Z,7.10
2022-11-25T22:14:18.570Z,7.10
2022-11-25T22:16:45.841Z,7.00
2022-11-25T22:19:21.514Z,7.00
2022-11-25T22:21:49.022Z,7.00
2022-11-25T22:24:19.081Z,7.00
2022-11-25T22:26:51.323Z,6.90
2022-11-25T22:29:24.470Z,6.90
2022-11-25T22:31:51.765Z,6.80
2022-11-25T22:34:23.315Z,6.80
2022-11-25T22:36:51.314Z,6.80
2022-11-25T22:39:21.242Z,6.80
2022-11-25T22:42:05.643Z,6.80
2022-11-25T22:44:37.104Z,6.80
2022-11-25T22:47:05.297Z,6.80
2022-11-25T22:49:47.753Z,6.70
2022-11-25T22:52:35.452Z,6.70
2022-11-25T22:55:19.113Z,6.70
2022-11-25T22:57:49.149Z,6.70
2022-11-25T23:00:22.373Z,6.70
2022-11-25T23:02:51.613Z,6.70
2022-11-25T23:05:32.228Z,6.70
2022-11-25T23:08:01.231Z,6.70
2022-11-25T23:10:31.258Z,6.70
2022-11-25T23:12:58.652Z,6.60
2022-11-25T23:15:26.233Z,6.60
2022-11-25T23:17:58.837Z,6.60
2022-11-25T23:20:50.028Z,6.60
2022-11-25T23:23:20.079Z,6.60
2022-11-25T23:25:48.765Z,6.70
2022-11-25T23:28:16.898Z,6.70
2022-11-25T23:30:52.033Z,6.70
2022-11-25T23:33:48.833Z,6.70
2022-11-25T23:36:29.539Z,6.70
2022-11-25T23:39:01.510Z,6.70
2022-11-25T23:41:34.509Z,6.70
2022-11-25T23:44:12.517Z,6.60
2022-11-25T23:46:40.569Z,6.60
2022-11-25T23:49:18.009Z,6.60
2022-11-25T23:51:45.268Z,6.60
2022-11-25T23:54:16.573Z,6.60
2022-11-25T23:56:43.868Z,6.50
2022-11-25T23:59:15.838Z,6.50
